createdAt,value
2023-04-02T00:00:03.212Z,992.81
2023-04-02T00:01:03.199Z,992.81
2023-04-02T00:02:03.242Z,992.82
2023-04-02T00:03:03.237Z,992.78
2023-04-02T00:04:03.199Z,992.77
2023-04-02T00:05:03.157Z,992.85
2023-04-02T00:06:03.139Z,992.79
2023-04-02T00:07:03.121Z,992.87
2023-04-02T00:08:03.118Z,992.79
2023-04-02T00:09:03.114Z,992.89
2023-04-02T00:10:03.116Z,992.83
2023-04-02T00:11:03.080Z,992.88
2023-04-02T00:12:03.063Z,992.91
2023-04-02T00:13:03.056Z,992.95
2023-04-02T00:14:03.051Z,992.94
2023-04-02T00:15:03.021Z,993.02
2023-04-02T00:16:03.043Z,992.99
2023-04-02T00:17:03.000Z,992.97
2023-04-02T00:18:03.020Z,993.00
2023-04-02T00:19:02.984Z,992.94
2023-04-02T00:20:02.976Z,993.07
2023-04-02T00:21:02.941Z,993.06
2023-04-02T00:22:02.947Z,993.03
2023-04-02T00:23:02.912Z,993.10
2023-04-02T00:24:02.928Z,993.16
2023-04-02T00:25:02.892Z,993.13
2023-04-02T00:26:02.872Z,993.14
2023-04-02T00:27:02.882Z,993.16
2023-04-02T00:28:02.852Z,993.15
2023-04-02T00:29:02.863Z,993.17
2023-04-02T00:30:02.831Z,993.18
2023-04-02T00:31:02.817Z,993.20
2023-04-02T00:32:02.816Z,993.19
2023-04-02T00:33:02.806Z,993.22
2023-04-02T00:34:02.806Z,993.18
2023-04-02T00:35:02.775Z,993.19
2023-04-02T00:36:02.789Z,993.17
2023-04-02T00:37:02.738Z,993.20
2023-04-02T00:38:02.744Z,993.23
2023-04-02T00:39:02.716Z,993.22
2023-04-02T00:40:02.689Z,993.21
2023-04-02T00:41:02.678Z,993.23
2023-04-02T00:42:02.667Z,993.21
2023-04-02T00:43:02.657Z,993.25
2023-04-02T00:44:02.658Z,993.23
2023-04-02T00:45:02.642Z,993.18
2023-04-02T00:46:02.668Z,993.25
2023-04-02T00:47:02.600Z,993.22
2023-04-02T00:48:02.630Z,993.27
2023-04-02T00:49:02.609Z,993.23
2023-04-02T00:50:02.597Z,993.30
2023-04-02T00:51:02.550Z,993.22
2023-04-02T00:52:02.540Z,993.22
2023-04-02T00:53:02.524Z,993.29
2023-04-02T00:54:02.523Z,993.29
2023-04-02T00:55:02.517Z,993.29
2023-04-02T00:56:02.495Z,993.33
2023-04-02T00:57:02.533Z,993.33
2023-04-02T00:58:02.464Z,993.30
2023-04-02T00:59:02.435Z,993.32
2023-04-02T01:00:02.495Z,993.32
2023-04-02T01:01:02.498Z,993.34
2023-04-02T01:02:02.415Z,993.34
2023-04-02T01:03:02.457Z,993.37
2023-04-02T01:04:02.377Z,993.37
2023-04-02T01:05:02.384Z,993.39
2023-04-02T01:06:02.364Z,993.35
2023-04-02T01:07:02.334Z,993.36
2023-04-02T01:08:02.325Z,993.37
2023-04-02T01:09:02.308Z,993.35
2023-04-02T01:10:02.326Z,993.37
2023-04-02T01:11:02.287Z,993.46
2023-04-02T01:12:02.261Z,993.42
2023-04-02T01:13:02.256Z,993.45
2023-04-02T01:14:02.235Z,993.45
2023-04-02T01:15:02.240Z,993.46
2023-04-02T01:16:02.230Z,993.50
2023-04-02T01:17:02.201Z,993.53
2023-04-02T01:18:02.213Z,993.47
2023-04-02T01:19:02.175Z,993.49
2023-04-02T01:20:02.165Z,993.50
2023-04-02T01:21:02.143Z,993.54
2023-04-02T01:22:02.158Z,993.49
2023-04-02T01:23:02.120Z,993.53
2023-04-02T01:24:02.128Z,993.56
2023-04-02T01:25:02.184Z,993.51
2023-04-02T01:26:02.076Z,993.55
2023-04-02T01:27:02.069Z,993.52
2023-04-02T01:28:02.062Z,993.53
2023-04-02T01:29:02.042Z,993.60
2023-04-02T01:30:02.041Z,993.52
2023-04-02T01:31:02.028Z,993.56
2023-04-02T01:32:02.005Z,993.61
2023-04-02T01:33:02.015Z,993.58
2023-04-02T01:34:01.979Z,993.59
2023-04-02T01:35:01.978Z,993.58
2023-04-02T01:36:02.013Z,993.60
2023-04-02T01:37:01.952Z,993.65
2023-04-02T01:38:01.936Z,993.64
2023-04-02T01:39:01.909Z,993.57
2023-04-02T01:40:01.901Z,993.66
2023-04-02T01:41:01.889Z,993.66
2023-04-02T01:42:01.874Z,993.68
2023-04-02T01:43:01.858Z,993.72
2023-04-02T01:44:01.837Z,993.72
2023-04-02T01:45:01.868Z,993.75
2023-04-02T01:46:01.809Z,993.69
2023-04-02T01:47:01.798Z,993.72
2023-04-02T01:48:01.834Z,993.77
2023-04-02T01:49:01.787Z,993.78
2023-04-02T01:50:01.764Z,993.79
2023-04-02T01:51:01.762Z,993.80
2023-04-02T01:52:01.728Z,993.78
2023-04-02T01:53:01.727Z,993.86
2023-04-02T01:54:01.744Z,993.78
2023-04-02T01:55:01.707Z,993.79
2023-04-02T01:56:01.698Z,993.84
2023-04-02T01:57:01.691Z,993.89
2023-04-02T01:58:01.685Z,993.83
2023-04-02T01:59:01.639Z,993.87
2023-04-02T02:00:01.640Z,993.84
2023-04-02T02:01:01.686Z,993.86
2023-04-02T02:02:01.696Z,993.86
2023-04-02T02:03:01.624Z,993.86
2023-04-02T02:04:01.576Z,993.85
2023-04-02T02:05:01.554Z,993.93
2023-04-02T02:06:01.566Z,993.92
2023-04-02T02:07:01.534Z,993.88
2023-04-02T02:08:01.547Z,993.92
2023-04-02T02:09:01.506Z,993.89
2023-04-02T02:10:01.515Z,993.90
2023-04-02T02:11:01.499Z,993.96
2023-04-02T02:12:01.472Z,993.97
2023-04-02T02:13:01.454Z,993.94
2023-04-02T02:14:01.461Z,993.96
2023-04-02T02:15:01.432Z,993.96
2023-04-02T02:16:01.479Z,993.99
2023-04-02T02:17:01.409Z,993.94
2023-04-02T02:18:01.444Z,994.00
2023-04-02T02:19:01.387Z,994.02
2023-04-02T02:20:01.369Z,994.03
2023-04-02T02:21:01.369Z,994.09
2023-04-02T02:22:01.346Z,994.07
2023-04-02T02:23:01.331Z,994.07
2023-04-02T02:24:01.322Z,994.10
2023-04-02T02:25:01.306Z,994.09
2023-04-02T02:26:01.334Z,994.10
2023-04-02T02:27:01.272Z,994.12
2023-04-02T02:28:01.270Z,994.09
2023-04-02T02:29:01.248Z,994.19
2023-04-02T02:30:01.236Z,994.16
2023-04-02T02:31:01.241Z,994.19
2023-04-02T02:32:01.298Z,994.17
2023-04-02T02:33:01.234Z,994.19
2023-04-02T02:34:01.182Z,994.25
2023-04-02T02:35:01.176Z,994.20
2023-04-02T02:36:01.204Z,994.24
2023-04-02T02:37:01.138Z,994.23
2023-04-02T02:38:01.131Z,994.24
2023-04-02T02:39:01.113Z,994.24
2023-04-02T02:40:01.103Z,994.27
2023-04-02T02:41:01.150Z,994.29
2023-04-02T02:42:01.115Z,994.32
2023-04-02T02:43:01.065Z,994.25
2023-04-02T02:44:01.053Z,994.28
2023-04-02T02:45:01.048Z,994.28
2023-04-02T02:46:01.067Z,994.30
2023-04-02T02:47:01.011Z,994.31
2023-04-02T02:48:01.010Z,994.33
2023-04-02T02:49:00.980Z,994.26
2023-04-02T02:50:00.974Z,994.32
2023-04-02T02:51:00.970Z,994.34
2023-04-02T02:52:00.942Z,994.42
2023-04-02T02:53:00.927Z,994.38
2023-04-02T02:54:00.919Z,994.39
2023-04-02T02:55:00.902Z,994.39
2023-04-02T02:56:00.907Z,994.44
2023-04-02T02:57:00.902Z,994.40
2023-04-02T02:58:00.877Z,994.46
2023-04-02T02:59:00.862Z,994.46
2023-04-02T03:00:00.842Z,994.48
2023-04-02T03:01:00.865Z,994.47
2023-04-02T03:02:00.805Z,994.48
2023-04-02T03:03:00.988Z,994.48
2023-04-02T03:04:00.992Z,994.49
2023-04-02T03:05:00.774Z,994.51
2023-04-02T03:06:00.772Z,994.51
2023-04-02T03:07:00.743Z,994.57
2023-04-02T03:08:00.728Z,994.53
2023-04-02T03:09:00.715Z,994.52
2023-04-02T03:10:00.695Z,994.57
2023-04-02T03:11:00.719Z,994.53
2023-04-02T03:12:00.687Z,994.56
2023-04-02T03:13:00.675Z,994.70
2023-04-02T03:14:00.668Z,994.57
2023-04-02T03:15:00.636Z,994.68
2023-04-02T03:16:00.629Z,994.73
2023-04-02T03:17:00.623Z,994.73
2023-04-02T03:18:00.675Z,994.73
2023-04-02T03:19:00.582Z,994.79
2023-04-02T03:20:00.563Z,994.78
2023-04-02T03:21:00.555Z,994.79
2023-04-02T03:22:00.554Z,994.74
2023-04-02T03:23:00.539Z,994.80
2023-04-02T03:24:00.516Z,994.80
2023-04-02T03:25:00.505Z,994.80
2023-04-02T03:26:00.486Z,994.84
2023-04-02T03:27:00.504Z,994.86
2023-04-02T03:28:00.464Z,994.86
2023-04-02T03:29:00.450Z,994.92
2023-04-02T03:30:00.462Z,994.96
2023-04-02T03:31:00.443Z,994.95
2023-04-02T03:32:00.451Z,994.95
2023-04-02T03:33:00.476Z,994.97
2023-04-02T03:34:00.395Z,995.01
2023-04-02T03:35:00.379Z,994.97
2023-04-02T03:36:00.407Z,995.03
2023-04-02T03:37:00.362Z,995.04
2023-04-02T03:38:00.342Z,995.03
2023-04-02T03:39:00.316Z,995.08
2023-04-02T03:40:00.307Z,995.08
2023-04-02T03:41:00.294Z,995.11
2023-04-02T03:42:00.291Z,995.10
2023-04-02T03:43:00.263Z,995.11
2023-04-02T03:44:00.254Z,995.15
2023-04-02T03:45:00.256Z,995.17
2023-04-02T03:46:00.269Z,995.21
2023-04-02T03:47:00.249Z,995.22
2023-04-02T03:48:00.260Z,995.20
2023-04-02T03:49:00.189Z,995.24
2023-04-02T03:50:00.172Z,995.17
2023-04-02T03:51:00.156Z,995.20
2023-04-02T03:52:00.160Z,995.25
2023-04-02T03:53:00.142Z,995.20
2023-04-02T03:54:00.131Z,995.24
2023-04-02T03:55:00.153Z,995.19
2023-04-02T03:56:00.105Z,995.25
2023-04-02T03:57:00.145Z,995.25
2023-04-02T03:58:00.093Z,995.25
2023-04-02T03:59:00.079Z,995.26
2023-04-02T04:00:00.053Z,995.33
2023-04-02T04:01:00.035Z,995.33
2023-04-02T04:02:00.093Z,995.37
2023-04-02T04:03:00.075Z,995.34
2023-04-02T04:04:00.064Z,995.41
2023-04-02T04:04:59.978Z,995.34
2023-04-02T04:05:59.954Z,995.41
2023-04-02T04:06:59.972Z,995.42
2023-04-02T04:07:59.932Z,995.44
2023-04-02T04:08:59.919Z,995.50
2023-04-02T04:09:59.902Z,995.46
2023-04-02T04:10:59.977Z,995.47
2023-04-02T04:11:59.909Z,995.48
2023-04-02T04:12:59.866Z,995.44
2023-04-02T04:13:59.852Z,995.45
2023-04-02T04:14:59.853Z,995.51
2023-04-02T04:15:59.823Z,995.54
2023-04-02T04:16:59.842Z,995.55
2023-04-02T04:17:59.880Z,995.55
2023-04-02T04:18:59.788Z,995.55
2023-04-02T04:19:59.770Z,995.59
2023-04-02T04:20:59.765Z,995.58
2023-04-02T04:21:59.747Z,995.60
2023-04-02T04:22:59.760Z,995.57
2023-04-02T04:23:59.717Z,995.58
2023-04-02T04:24:59.707Z,995.62
2023-04-02T04:25:59.690Z,995.64
2023-04-02T04:26:59.678Z,995.69
2023-04-02T04:27:59.680Z,995.66
2023-04-02T04:28:59.661Z,995.69
2023-04-02T04:29:59.640Z,995.72
2023-04-02T04:30:59.628Z,995.78
2023-04-02T04:31:59.627Z,995.80
2023-04-02T04:32:59.646Z,995.80
2023-04-02T04:33:59.607Z,995.84
2023-04-02T04:34:59.578Z,995.82
2023-04-02T04:35:59.583Z,995.78
2023-04-02T04:36:59.556Z,995.85
2023-04-02T04:37:59.559Z,995.89
2023-04-02T04:38:59.555Z,995.86
2023-04-02T04:39:59.509Z,995.89
2023-04-02T04:40:59.496Z,995.92
2023-04-02T04:41:59.493Z,995.90
2023-04-02T04:42:59.487Z,995.92
2023-04-02T04:43:59.461Z,995.94
2023-04-02T04:44:59.447Z,995.95
2023-04-02T04:45:59.451Z,995.96
2023-04-02T04:46:59.419Z,995.95
2023-04-02T04:47:59.442Z,995.99
2023-04-02T04:48:59.402Z,996.01
2023-04-02T04:49:59.401Z,996.05
2023-04-02T04:50:59.371Z,996.08
2023-04-02T04:51:59.356Z,996.09
2023-04-02T04:52:59.363Z,996.09
2023-04-02T04:53:59.326Z,996.05
2023-04-02T04:54:59.314Z,996.12
2023-04-02T04:56:06.014Z,996.13
2023-04-02T04:57:00.322Z,996.10
2023-04-02T04:57:59.312Z,996.14
2023-04-02T04:58:59.319Z,996.17
2023-04-02T04:59:59.263Z,996.18
2023-04-02T05:00:59.262Z,996.18
2023-04-02T05:01:59.214Z,996.19
2023-04-02T05:02:59.259Z,996.17
2023-04-02T05:03:59.211Z,996.29
2023-04-02T05:04:59.336Z,996.29
2023-04-02T05:05:59.184Z,996.24
2023-04-02T05:06:59.154Z,996.30
2023-04-02T05:07:59.952Z,996.32
2023-04-02T05:08:59.152Z,996.35
2023-04-02T05:09:59.116Z,996.37
2023-04-02T05:10:59.096Z,996.37
2023-04-02T05:11:59.081Z,996.31
2023-04-02T05:12:59.081Z,996.36
2023-04-02T05:13:59.083Z,996.43
2023-04-02T05:14:59.052Z,996.42
2023-04-02T05:16:01.076Z,996.42
2023-04-02T05:16:59.025Z,996.44
2023-04-02T05:17:59.045Z,996.46
2023-04-02T05:18:59.011Z,996.45
2023-04-02T05:19:58.974Z,996.46
2023-04-02T05:20:58.971Z,996.46
2023-04-02T05:21:58.970Z,996.58
2023-04-02T05:22:58.940Z,996.57
2023-04-02T05:23:58.944Z,996.53
2023-04-02T05:24:58.916Z,996.59
2023-04-02T05:25:58.907Z,996.58
2023-04-02T05:26:58.894Z,996.58
2023-04-02T05:27:58.879Z,996.59
2023-04-02T05:28:58.877Z,996.59
2023-04-02T05:29:58.848Z,996.61
2023-04-02T05:30:58.852Z,996.62
2023-04-02T05:31:58.817Z,996.64
2023-04-02T05:32:58.858Z,996.66
2023-04-02T05:33:58.808Z,996.60
2023-04-02T05:34:58.778Z,996.63
2023-04-02T05:35:58.778Z,996.62
2023-04-02T05:36:58.759Z,996.65
2023-04-02T05:37:58.782Z,996.63
2023-04-02T05:38:58.745Z,996.65
2023-04-02T05:39:58.715Z,996.70
2023-04-02T05:40:58.702Z,996.72
2023-04-02T05:41:58.691Z,996.72
2023-04-02T05:42:58.682Z,996.72
2023-04-02T05:43:58.674Z,996.77
2023-04-02T05:44:58.653Z,996.79
2023-04-02T05:45:58.640Z,996.79
2023-04-02T05:46:58.820Z,996.80
2023-04-02T05:47:58.719Z,996.80
2023-04-02T05:48:58.616Z,996.77
2023-04-02T05:49:58.585Z,996.83
2023-04-02T05:50:58.571Z,996.84
2023-04-02T05:51:58.558Z,996.82
2023-04-02T05:52:58.547Z,996.83
2023-04-02T05:53:58.553Z,996.85
2023-04-02T05:54:58.536Z,996.91
2023-04-02T05:55:58.503Z,996.85
2023-04-02T05:56:58.601Z,996.92
2023-04-02T05:58:17.687Z,996.97
2023-04-02T05:58:59.541Z,997.01
2023-04-02T05:59:58.479Z,997.01
2023-04-02T06:00:58.433Z,997.02
2023-04-02T06:01:58.438Z,997.01
2023-04-02T06:02:58.456Z,997.03
2023-04-02T06:03:58.449Z,997.03
2023-04-02T06:04:58.397Z,997.10
2023-04-02T06:05:58.373Z,997.08
2023-04-02T06:06:58.360Z,997.12
2023-04-02T06:07:58.373Z,997.04
2023-04-02T06:08:58.349Z,997.14
2023-04-02T06:09:58.364Z,997.16
2023-04-02T06:10:58.301Z,997.19
2023-04-02T06:11:58.294Z,997.20
2023-04-02T06:12:58.292Z,997.20
2023-04-02T06:13:58.265Z,997.24
2023-04-02T06:14:58.274Z,997.27
2023-04-02T06:15:58.240Z,997.26
2023-04-02T06:16:58.276Z,997.30
2023-04-02T06:17:58.273Z,997.36
2023-04-02T06:18:58.204Z,997.37
2023-04-02T06:19:58.209Z,997.39
2023-04-02T06:20:58.170Z,997.38
2023-04-02T06:21:58.164Z,997.41
2023-04-02T06:22:58.142Z,997.42
2023-04-02T06:23:58.131Z,997.48
2023-04-02T06:24:58.135Z,997.43
2023-04-02T06:25:58.127Z,997.45
2023-04-02T06:26:58.092Z,997.50
2023-04-02T06:27:58.079Z,997.51
2023-04-02T06:28:58.109Z,997.49
2023-04-02T06:29:58.078Z,997.58
2023-04-02T06:30:58.071Z,997.62
2023-04-02T06:31:58.045Z,997.58
2023-04-02T06:32:58.032Z,997.63
2023-04-02T06:33:58.000Z,997.63
2023-04-02T06:34:58.015Z,997.67
2023-04-02T06:35:57.998Z,997.68
2023-04-02T06:36:57.962Z,997.70
2023-04-02T06:37:57.946Z,997.72
2023-04-02T06:38:57.937Z,997.69
2023-04-02T06:39:57.939Z,997.71
2023-04-02T06:40:58.922Z,997.73
2023-04-02T06:41:57.920Z,997.75
2023-04-02T06:42:57.889Z,997.75
2023-04-02T06:43:57.869Z,997.77
2023-04-02T06:44:57.869Z,997.80
2023-04-02T06:45:57.880Z,997.82
2023-04-02T06:46:57.833Z,997.83
2023-04-02T06:47:57.828Z,997.85
2023-04-02T06:48:57.802Z,997.90
2023-04-02T06:49:57.830Z,997.89
2023-04-02T06:50:57.788Z,997.87
2023-04-02T06:51:57.844Z,997.95
2023-04-02T06:52:57.757Z,997.97
2023-04-02T06:53:57.743Z,997.95
2023-04-02T06:54:57.769Z,998.00
2023-04-02T06:55:57.716Z,997.97
2023-04-02T06:56:57.748Z,997.90
2023-04-02T06:57:57.706Z,998.08
2023-04-02T06:58:57.673Z,998.10
2023-04-02T06:59:57.696Z,998.12
2023-04-02T07:00:57.650Z,998.17
2023-04-02T07:01:57.671Z,998.16
2023-04-02T07:02:57.658Z,998.20
2023-04-02T07:03:57.609Z,998.19
2023-04-02T07:04:57.650Z,998.21
2023-04-02T07:05:57.588Z,998.25
2023-04-02T07:06:57.558Z,998.19
2023-04-02T07:07:57.547Z,998.21
2023-04-02T07:08:57.530Z,998.27
2023-04-02T07:09:57.561Z,998.28
2023-04-02T07:10:57.502Z,998.30
2023-04-02T07:11:57.500Z,998.37
2023-04-02T07:12:57.488Z,998.35
2023-04-02T07:13:57.484Z,998.40
2023-04-02T07:14:57.456Z,998.35
2023-04-02T07:15:57.506Z,998.39
2023-04-02T07:16:57.424Z,998.41
2023-04-02T07:17:57.516Z,998.42
2023-04-02T07:18:57.399Z,998.46
2023-04-02T07:19:57.387Z,998.46
2023-04-02T07:20:57.392Z,998.52
2023-04-02T07:21:57.367Z,998.43
2023-04-02T07:22:57.356Z,998.48
2023-04-02T07:23:57.331Z,998.55
2023-04-02T07:24:57.321Z,998.58
2023-04-02T07:25:57.325Z,998.56
2023-04-02T07:26:57.302Z,998.68
2023-04-02T07:27:57.288Z,998.66
2023-04-02T07:28:57.268Z,998.73
2023-04-02T07:29:57.272Z,998.70
2023-04-02T07:30:57.253Z,998.74
2023-04-02T07:31:57.315Z,998.73
2023-04-02T07:32:57.234Z,998.77
2023-04-02T07:33:57.209Z,998.83
2023-04-02T07:34:57.181Z,998.85
2023-04-02T07:35:57.254Z,998.88
2023-04-02T07:36:57.155Z,998.84
2023-04-02T07:37:57.147Z,998.85
2023-04-02T07:38:57.131Z,998.92
2023-04-02T07:39:57.115Z,998.88
2023-04-02T07:40:57.125Z,998.97
2023-04-02T07:41:57.100Z,998.99
2023-04-02T07:42:57.093Z,998.94
2023-04-02T07:43:57.092Z,998.92
2023-04-02T07:44:57.053Z,999.04
2023-04-02T07:45:57.078Z,999.02
2023-04-02T07:46:57.053Z,998.98
2023-04-02T07:47:57.044Z,999.05
2023-04-02T07:48:56.997Z,999.00
2023-04-02T07:49:57.050Z,999.05
2023-04-02T07:50:56.990Z,999.05
2023-04-02T07:51:56.966Z,999.13
2023-04-02T07:52:56.962Z,999.13
2023-04-02T07:53:56.936Z,999.14
2023-04-02T07:54:56.918Z,999.16
2023-04-02T07:55:56.925Z,999.18
2023-04-02T07:56:57.003Z,999.17
2023-04-02T07:57:56.886Z,999.20
2023-04-02T07:58:56.867Z,999.27
2023-04-02T07:59:56.866Z,999.27
2023-04-02T08:00:56.883Z,999.36
2023-04-02T08:01:56.909Z,999.31
2023-04-02T08:02:57.000Z,999.38
2023-04-02T08:03:56.889Z,999.39
2023-04-02T08:04:56.789Z,999.36
2023-04-02T08:05:56.781Z,999.43
2023-04-02T08:06:56.779Z,999.32
2023-04-02T08:07:57.035Z,999.47
2023-04-02T08:08:56.742Z,999.40
2023-04-02T08:09:56.723Z,999.40
2023-04-02T08:10:56.715Z,999.49
2023-04-02T08:11:56.728Z,999.50
2023-04-02T08:12:56.681Z,999.54
2023-04-02T08:13:56.679Z,999.57
2023-04-02T08:14:56.656Z,999.58
2023-04-02T08:15:56.644Z,999.61
2023-04-02T08:16:56.850Z,999.69
2023-04-02T08:17:56.829Z,999.70
2023-04-02T08:18:56.610Z,999.67
2023-04-02T08:19:56.603Z,999.66
2023-04-02T08:20:56.586Z,999.77
2023-04-02T08:21:56.613Z,999.76
2023-04-02T08:22:56.557Z,999.82
2023-04-02T08:23:56.547Z,999.90
2023-04-02T08:24:56.554Z,999.85
2023-04-02T08:25:56.611Z,999.93
2023-04-02T08:26:56.514Z,999.90
2023-04-02T08:27:56.490Z,999.95
2023-04-02T08:28:56.502Z,999.95
2023-04-02T08:29:56.457Z,1000.00
2023-04-02T08:30:56.510Z,1000.04
2023-04-02T08:31:56.449Z,1000.04
2023-04-02T08:32:56.495Z,1000.05
2023-04-02T08:33:56.425Z,1000.17
2023-04-02T08:34:56.395Z,1000.12
2023-04-02T08:35:56.404Z,1000.08
2023-04-02T08:36:56.409Z,1000.12
2023-04-02T08:37:56.360Z,1000.15
2023-04-02T08:38:56.343Z,1000.16
2023-04-02T08:39:56.341Z,1000.24
2023-04-02T08:40:56.323Z,1000.28
2023-04-02T08:41:56.328Z,1000.30
2023-04-02T08:42:56.306Z,1000.21
2023-04-02T08:43:56.279Z,1000.25
2023-04-02T08:44:56.266Z,1000.29
2023-04-02T08:45:56.285Z,1000.30
2023-04-02T08:46:56.253Z,1000.34
2023-04-02T08:47:56.486Z,1000.40
2023-04-02T08:48:56.217Z,1000.41
2023-04-02T08:49:56.265Z,1000.38
2023-04-02T08:50:56.196Z,1000.41
2023-04-02T08:51:56.192Z,1000.47
2023-04-02T08:52:56.155Z,1000.49
2023-04-02T08:53:56.151Z,1000.58
2023-04-02T08:54:56.132Z,1000.59
2023-04-02T08:55:56.133Z,1000.60
2023-04-02T08:56:56.150Z,1000.60
2023-04-02T08:57:56.092Z,1000.59
2023-04-02T08:58:56.093Z,1000.67
2023-04-02T08:59:56.064Z,1000.68
2023-04-02T09:00:56.050Z,1000.75
2023-04-02T09:01:56.110Z,1000.74
2023-04-02T09:02:56.075Z,1000.69
2023-04-02T09:03:56.023Z,1000.78
2023-04-02T09:04:56.029Z,1000.73
2023-04-02T09:05:56.010Z,1000.82
2023-04-02T09:06:55.993Z,1000.81
2023-04-02T09:07:55.959Z,1000.81
2023-04-02T09:08:55.949Z,1000.89
2023-04-02T09:09:55.982Z,1000.96
2023-04-02T09:10:55.919Z,1000.96
2023-04-02T09:11:55.927Z,1000.85
2023-04-02T09:12:55.895Z,1000.99
2023-04-02T09:13:55.883Z,1000.97
2023-04-02T09:14:55.867Z,1000.96
2023-04-02T09:15:55.871Z,1001.01
2023-04-02T09:16:55.869Z,1001.02
2023-04-02T09:17:57.045Z,1001.05
2023-04-02T09:18:55.820Z,1001.11
2023-04-02T09:19:55.810Z,1001.02
2023-04-02T09:20:55.795Z,1001.13
2023-04-02T09:21:55.821Z,1001.10
2023-04-02T09:22:55.779Z,1001.13
2023-04-02T09:23:55.783Z,1001.13
2023-04-02T09:24:55.780Z,1001.23
2023-04-02T09:26:04.302Z,1001.20
2023-04-02T09:26:55.733Z,1001.20
2023-04-02T09:27:55.704Z,1001.19
2023-04-02T09:28:55.689Z,1001.22
2023-04-02T09:29:55.678Z,1001.24
2023-04-02T09:30:55.662Z,1001.33
2023-04-02T09:31:55.689Z,1001.37
2023-04-02T09:32:55.686Z,1001.37
2023-04-02T09:33:55.629Z,1001.40
2023-04-02T09:34:55.611Z,1001.44
2023-04-02T09:35:55.642Z,1001.40
2023-04-02T09:36:55.604Z,1001.49
2023-04-02T09:37:55.592Z,1001.50
2023-04-02T09:38:55.556Z,1001.50
2023-04-02T09:39:55.573Z,1001.53
2023-04-02T09:40:55.590Z,1001.57
2023-04-02T09:42:04.890Z,1001.51
2023-04-02T09:42:55.533Z,1001.56
2023-04-02T09:43:55.488Z,1001.66
2023-04-02T09:44:55.484Z,1001.55
2023-04-02T09:45:55.462Z,1001.66
2023-04-02T09:46:55.525Z,1001.62
2023-04-02T09:47:55.487Z,1001.61
2023-04-02T09:48:55.422Z,1001.67
2023-04-02T09:49:55.587Z,1001.68
2023-04-02T09:50:55.409Z,1001.68
2023-04-02T09:51:55.384Z,1001.70
2023-04-02T09:52:55.385Z,1001.68
2023-04-02T09:53:55.389Z,1001.73
2023-04-02T09:54:55.342Z,1001.78
2023-04-02T09:55:55.333Z,1001.84
2023-04-02T09:56:55.343Z,1001.82
2023-04-02T09:57:55.316Z,1001.79
2023-04-02T09:58:55.289Z,1001.84
2023-04-02T09:59:55.285Z,1001.84
2023-04-02T10:00:55.304Z,1001.86
2023-04-02T10:01:55.248Z,1001.92
2023-04-02T10:02:55.275Z,1001.93
2023-04-02T10:03:55.274Z,1001.95
2023-04-02T10:04:55.218Z,1001.97
2023-04-02T10:05:55.208Z,1002.02
2023-04-02T10:06:55.179Z,1001.96
2023-04-02T10:07:55.189Z,1002.01
2023-04-02T10:08:55.163Z,1002.08
2023-04-02T10:09:55.165Z,1002.06
2023-04-02T10:10:55.172Z,1002.08
2023-04-02T10:11:55.119Z,1002.08
2023-04-02T10:12:55.117Z,1002.13
2023-04-02T10:13:55.094Z,1002.20
2023-04-02T10:14:55.080Z,1002.21
2023-04-02T10:15:55.071Z,1002.20
2023-04-02T10:16:55.117Z,1002.32
2023-04-02T10:17:55.139Z,1002.26
2023-04-02T10:18:55.028Z,1002.29
2023-04-02T10:19:55.012Z,1002.24
2023-04-02T10:20:55.001Z,1002.33
2023-04-02T10:21:54.983Z,1002.30
2023-04-02T10:22:54.978Z,1002.38
2023-04-02T10:23:54.980Z,1002.38
2023-04-02T10:24:54.948Z,1002.38
2023-04-02T10:25:54.960Z,1002.38
2023-04-02T10:26:54.927Z,1002.42
2023-04-02T10:27:54.912Z,1002.41
2023-04-02T10:28:54.926Z,1002.45
2023-04-02T10:29:54.884Z,1002.43
2023-04-02T10:30:54.935Z,1002.42
2023-04-02T10:31:54.871Z,1002.50
2023-04-02T10:32:54.906Z,1002.48
2023-04-02T10:33:54.858Z,1002.52
2023-04-02T10:34:54.825Z,1002.55
2023-04-02T10:35:54.878Z,1002.59
2023-04-02T10:36:54.804Z,1002.56
2023-04-02T10:37:54.781Z,1002.60
2023-04-02T10:38:54.778Z,1002.56
2023-04-02T10:39:54.754Z,1002.57
2023-04-02T10:40:56.869Z,1002.58
2023-04-02T10:41:54.749Z,1002.62
2023-04-02T10:42:54.720Z,1002.67
2023-04-02T10:43:54.728Z,1002.68
2023-04-02T10:44:54.693Z,1002.67
2023-04-02T10:45:54.747Z,1002.71
2023-04-02T10:46:54.674Z,1002.84
2023-04-02T10:47:54.702Z,1002.81
2023-04-02T10:48:54.664Z,1002.87
2023-04-02T10:49:54.630Z,1002.85
2023-04-02T10:50:54.612Z,1002.89
2023-04-02T10:51:54.602Z,1002.88
2023-04-02T10:52:56.524Z,1002.95
2023-04-02T10:53:54.587Z,1002.95
2023-04-02T10:54:54.566Z,1002.99
2023-04-02T10:55:54.543Z,1002.93
2023-04-02T10:56:54.552Z,1002.92
2023-04-02T10:57:54.543Z,1003.04
2023-04-02T10:58:56.828Z,1003.02
2023-04-02T10:59:54.499Z,1003.03
2023-04-02T11:00:54.477Z,1002.98
2023-04-02T11:01:54.557Z,1003.04
2023-04-02T11:02:54.555Z,1003.06
2023-04-02T11:03:56.972Z,1003.07
2023-04-02T11:04:56.751Z,1003.08
2023-04-02T11:05:54.413Z,1003.01
2023-04-02T11:07:00.831Z,1003.14
2023-04-02T11:07:55.388Z,1003.10
2023-04-02T11:08:54.386Z,1003.12
2023-04-02T11:09:54.498Z,1003.09
2023-04-02T11:10:54.350Z,1003.16
2023-04-02T11:11:54.344Z,1003.19
2023-04-02T11:12:54.325Z,1003.17
2023-04-02T11:13:54.355Z,1003.20
2023-04-02T11:14:54.305Z,1003.25
2023-04-02T11:15:54.366Z,1003.24
2023-04-02T11:16:54.270Z,1003.22
2023-04-02T11:17:54.258Z,1003.24
2023-04-02T11:18:54.277Z,1003.25
2023-04-02T11:19:54.252Z,1003.29
2023-04-02T11:20:54.216Z,1003.30
2023-04-02T11:21:59.310Z,1003.31
2023-04-02T11:22:54.217Z,1003.34
2023-04-02T11:23:54.182Z,1003.37
2023-04-02T11:24:54.198Z,1003.35
2023-04-02T11:25:54.153Z,1003.44
2023-04-02T11:26:54.137Z,1003.41
2023-04-02T11:27:54.122Z,1003.43
2023-04-02T11:28:54.110Z,1003.45
2023-04-02T11:29:54.134Z,1003.45
2023-04-02T11:30:54.086Z,1003.46
2023-04-02T11:31:54.132Z,1003.48
2023-04-02T11:32:54.079Z,1003.52
2023-04-02T11:33:54.047Z,1003.50
2023-04-02T11:35:05.912Z,1003.56
2023-04-02T11:35:54.040Z,1003.59
2023-04-02T11:36:54.023Z,1003.63
2023-04-02T11:37:53.996Z,1003.62
2023-04-02T11:38:54.978Z,1003.61
2023-04-02T11:39:54.009Z,1003.58
2023-04-02T11:40:53.957Z,1003.64
2023-04-02T11:41:53.946Z,1003.65
2023-04-02T11:42:53.934Z,1003.67
2023-04-02T11:43:53.917Z,1003.71
2023-04-02T11:44:53.927Z,1003.76
2023-04-02T11:45:53.961Z,1003.83
2023-04-02T11:46:53.901Z,1003.86
2023-04-02T11:47:53.895Z,1003.86
2023-04-02T11:48:53.859Z,1003.82
2023-04-02T11:49:53.877Z,1003.85
2023-04-02T11:50:53.835Z,1003.82
2023-04-02T11:52:02.298Z,1003.84
2023-04-02T11:52:53.809Z,1003.85
2023-04-02T11:53:53.812Z,1003.84
2023-04-02T11:54:53.811Z,1003.89
2023-04-02T11:55:53.760Z,1003.89
2023-04-02T11:56:53.780Z,1003.87
2023-04-02T11:57:53.736Z,1003.95
2023-04-02T11:58:53.771Z,1003.87
2023-04-02T11:59:53.716Z,1003.97
2023-04-02T12:00:53.716Z,1003.92
2023-04-02T12:01:53.747Z,1003.94
2023-04-02T12:02:53.717Z,1003.95
2023-04-02T12:03:53.657Z,1003.99
2023-04-02T12:04:53.738Z,1003.99
2023-04-02T12:05:53.644Z,1004.01
2023-04-02T12:06:54.334Z,1004.03
2023-04-02T12:07:53.618Z,1004.09
2023-04-02T12:08:57.993Z,1004.10
2023-04-02T12:09:53.583Z,1004.05
2023-04-02T12:10:53.593Z,1004.10
2023-04-02T12:11:53.548Z,1004.16
2023-04-02T12:12:53.541Z,1004.20
2023-04-02T12:13:53.538Z,1004.27
2023-04-02T12:14:53.520Z,1004.28
2023-04-02T12:15:53.515Z,1004.27
2023-04-02T12:16:53.503Z,1004.28
2023-04-02T12:17:53.501Z,1004.23
2023-04-02T12:18:53.484Z,1004.31
2023-04-02T12:19:53.448Z,1004.32
2023-04-02T12:20:53.462Z,1004.27